Tallahassee, Florida
Current Conditions -  °F | °C
As of 9:53 PM on Friday 21 Nov 2014 (Local Time) from KTLH Reporting Station
Clear Clear  
Wind Chill: 44°   Ceiling: Unl
Heat Index: 44°   Visibility: 10mi
Dew Point: 36°   Wind: 0mph
Humidity: 73%   Direction: NA
Pressure: 30.34"   Gusts: NA
Location:  30.44°N, 84.28°W
Report Text: KTLH 220253Z 00000KT 10SM CLR 07/02 A3034 RMK AO2 SLP271 T00670022 51012 $
Loading
Personal Weather Stations






























Interactive Weather Map New forecast layout! Learn more

10-Day Weather Forecast

Advertisements
Track Severe Weather on mobile